Time;durP1;ratioP1;P1;durP2;ratioP2;P2;SDS_P1;SDS_P2;PMS_P1;PMS_P2;Temp;Humidity;BMP_temperature;BMP_pressure;BME280_temperature;BME280_humidity;BME280_pressure;Samples;Min_cycle;Max_cycle;Signal;HPM_P1;HPM_P2
2022/05/28 00:00:12;;;;;;;4.32;1.48;;;11.30;74.70;;;;;;4992914;28;20041;-79
2022/05/28 00:02:38;;;;;;;5.57;1.33;;;11.40;75.00;;;;;;4973481;28;20035;-76
2022/05/28 00:05:04;;;;;;;5.45;1.33;;;11.30;74.70;;;;;;4942316;28;20118;-77
2022/05/28 00:07:29;;;;;;;4.28;1.60;;;11.30;75.10;;;;;;4977090;28;20035;-78
2022/05/28 00:09:55;;;;;;;9.13;2.45;;;11.30;75.30;;;;;;4947968;28;20054;-77
2022/05/28 00:12:29;;;;;;;8.73;1.80;;;11.30;75.20;;;;;;4960905;28;20042;-77
2022/05/28 00:14:56;;;;;;;5.35;1.55;;;11.20;74.40;;;;;;4963042;28;20120;-77
2022/05/28 00:17:22;;;;;;;5.85;1.50;;;11.30;75.30;;;;;;4927575;28;20484;-77
2022/05/28 00:19:47;;;;;;;8.60;1.80;;;11.30;75.40;;;;;;4990690;28;20039;-77
2022/05/28 00:22:13;;;;;;;7.78;1.70;;;11.20;75.40;;;;;;4928481;28;20551;-76
2022/05/28 00:24:38;;;;;;;6.05;2.20;;;11.10;75.90;;;;;;4974281;28;20019;-77
2022/05/28 00:27:04;;;;;;;6.75;1.98;;;11.10;75.60;;;;;;4946000;28;20084;-77
2022/05/28 00:29:30;;;;;;;5.45;1.45;;;11.10;76.10;;;;;;4990717;28;20038;-77
2022/05/28 00:31:55;;;;;;;9.40;1.67;;;11.10;76.10;;;;;;4963691;28;20041;-77
2022/05/28 00:34:21;;;;;;;9.32;2.17;;;11.00;76.20;;;;;;4980268;28;20030;-77
2022/05/28 00:36:47;;;;;;;8.93;1.63;;;11.10;76.50;;;;;;4963209;28;20034;-76
2022/05/28 00:39:12;;;;;;;9.15;2.35;;;11.00;76.70;;;;;;4950097;28;20045;-76
2022/05/28 00:41:38;;;;;;;10.43;1.88;;;11.00;76.70;;;;;;4975745;28;20026;-76
2022/05/28 00:44:04;;;;;;;5.25;1.65;;;11.00;76.80;;;;;;4976510;28;20031;-75
2022/05/28 00:46:30;;;;;;;5.40;1.80;;;11.00;76.70;;;;;;4991915;28;20078;-75
2022/05/28 00:48:57;;;;;;;7.55;2.10;;;11.00;76.20;;;;;;4978162;28;20561;-76
2022/05/28 00:51:31;;;;;;;4.20;1.15;;;10.90;77.00;;;;;;4979842;28;20065;-76
2022/05/28 00:53:59;;;;;;;8.77;1.88;;;10.90;77.70;;;;;;4975956;28;20026;-77
2022/05/28 00:56:26;;;;;;;8.45;2.22;;;10.90;78.00;;;;;;4975008;28;20030;-77
2022/05/28 00:58:51;;;;;;;4.70;1.42;;;10.80;77.90;;;;;;4985348;28;20038;-77
2022/05/28 01:01:23;;;;;;;3.45;1.58;;;10.70;77.70;;;;;;4948340;28;20606;-77
2022/05/28 01:03:57;;;;;;;11.55;1.88;;;10.90;78.10;;;;;;4978147;28;20038;-77
2022/05/28 01:06:49;;;;;;;9.00;1.77;;;10.90;78.10;;;;;;4967081;28;20360;-77
2022/05/28 01:09:32;;;;;;;8.65;2.28;;;10.80;77.00;;;;;;4981830;28;20026;-76
2022/05/28 01:12:05;;;;;;;4.90;1.52;;;10.90;78.30;;;;;;4979659;28;20033;-77
2022/05/28 01:15:02;;;;;;;10.30;2.63;;;10.80;78.40;;;;;;4995742;28;20031;-77
2022/05/28 01:17:48;;;;;;;6.80;1.70;;;10.80;78.80;;;;;;4972971;28;20031;-77
2022/05/28 01:20:20;;;;;;;3.27;1.33;;;10.80;78.70;;;;;;4978732;28;20046;-78
2022/05/28 01:23:10;;;;;;;6.90;1.40;;;10.90;77.60;;;;;;4995628;28;20037;-78
2022/05/28 01:26:01;;;;;;;13.40;1.95;;;11.00;78.70;;;;;;4977279;28;20389;-77
2022/05/28 01:28:32;;;;;;;3.42;1.23;;;10.90;79.60;;;;;;4974750;28;20041;-77
2022/05/28 01:30:57;;;;;;;10.05;1.65;;;10.90;79.00;;;;;;4948346;28;20121;-77
2022/05/28 01:33:23;;;;;;;7.40;2.45;;;10.80;79.00;;;;;;4983506;28;21223;-77
2022/05/28 01:35:49;;;;;;;6.75;1.92;;;10.80;79.20;;;;;;4979116;28;20035;-76
2022/05/28 01:38:14;;;;;;;9.18;2.20;;;10.80;79.10;;;;;;4927991;28;20037;-78
2022/05/28 01:40:40;;;;;;;9.23;1.75;;;10.80;79.80;;;;;;4995542;28;20600;-77
2022/05/28 01:43:07;;;;;;;10.52;1.90;;;10.70;79.80;;;;;;4966173;28;20497;-77
2022/05/28 01:45:33;;;;;;;12.05;2.50;;;10.70;80.00;;;;;;4981483;28;20236;-78
2022/05/28 01:47:59;;;;;;;8.30;1.30;;;10.70;80.50;;;;;;4998334;28;20038;-77
2022/05/28 01:50:25;;;;;;;8.40;1.65;;;10.60;80.10;;;;;;4992816;28;20038;-77
2022/05/28 01:52:51;;;;;;;11.75;4.00;;;10.60;80.60;;;;;;4960828;28;20031;-77
2022/05/28 01:55:17;;;;;;;5.47;1.20;;;10.60;80.30;;;;;;4943636;28;20406;-77
2022/05/28 01:57:42;;;;;;;7.47;1.48;;;10.50;81.20;;;;;;4960065;28;20169;-77
2022/05/28 02:00:09;;;;;;;8.82;1.90;;;10.60;81.10;;;;;;4944981;28;20485;-77
2022/05/28 02:02:35;;;;;;;7.93;1.83;;;10.50;80.60;;;;;;4965226;28;20031;-77
2022/05/28 02:05:01;;;;;;;7.60;2.05;;;10.50;80.60;;;;;;4964793;28;20041;-77
2022/05/28 02:07:27;;;;;;;7.28;2.03;;;10.50;80.20;;;;;;4992224;28;20043;-77
2022/05/28 02:09:58;;;;;;;10.02;1.80;;;10.60;80.60;;;;;;4946451;28;20046;-76
2022/05/28 02:12:25;;;;;;;8.63;1.92;;;10.40;80.60;;;;;;4963241;28;20080;-77
2022/05/28 02:15:28;;;;;;;8.55;2.40;;;10.40;81.90;;;;;;4941053;28;20110;-77
2022/05/28 02:17:59;;;;;;;9.10;1.92;;;10.30;82.40;;;;;;4976089;28;20547;-76
2022/05/28 02:20:29;;;;;;;10.52;2.35;;;10.30;82.30;;;;;;4942558;28;20041;-76
2022/05/28 02:23:15;;;;;;;9.80;2.67;;;10.30;82.80;;;;;;4951272;28;20517;-77
2022/05/28 02:26:00;;;;;;;;;;;10.30;82.10;;;;;;4932788;28;20114;-77
2022/05/28 02:28:27;;;;;;;8.45;1.77;;;10.20;81.70;;;;;;4964890;28;20357;-76
2022/05/28 02:30:56;;;;;;;9.43;2.00;;;10.30;82.90;;;;;;4958578;28;20035;-77
2022/05/28 02:33:22;;;;;;;8.70;2.35;;;10.30;82.30;;;;;;4928949;28;20035;-76
2022/05/28 02:35:48;;;;;;;7.32;3.13;;;10.20;82.50;;;;;;4977800;28;20027;-76
2022/05/28 02:38:14;;;;;;;8.10;1.83;;;10.20;82.40;;;;;;4994322;28;20081;-76
2022/05/28 02:40:40;;;;;;;8.23;1.95;;;10.20;83.40;;;;;;4977674;28;20520;-76
2022/05/28 02:43:05;;;;;;;14.77;2.80;;;10.10;83.40;;;;;;4961579;28;20035;-76
2022/05/28 02:45:31;;;;;;;8.40;1.98;;;10.10;83.70;;;;;;4976610;28;20027;-76
2022/05/28 02:47:57;;;;;;;9.30;2.30;;;10.10;84.20;;;;;;4943837;28;20042;-76
2022/05/28 02:50:26;;;;;;;10.40;2.03;;;10.00;83.80;;;;;;4940418;28;20042;-76
2022/05/28 02:52:52;;;;;;;7.43;2.28;;;10.00;83.40;;;;;;4944978;28;20559;-76
2022/05/28 02:55:17;;;;;;;8.15;2.30;;;10.00;84.10;;;;;;4995107;28;20050;-76
2022/05/28 02:57:44;;;;;;;6.70;2.25;;;10.00;85.60;;;;;;4976488;28;20446;-76
2022/05/28 03:00:10;;;;;;;13.50;2.53;;;10.00;84.80;;;;;;4978670;28;20121;-76
2022/05/28 03:02:36;;;;;;;6.22;2.17;;;10.00;86.70;;;;;;4993058;28;20054;-76
2022/05/28 03:05:01;;;;;;;7.15;2.13;;;10.00;85.80;;;;;;4950656;28;20485;-76
2022/05/28 03:07:27;;;;;;;7.10;1.60;;;10.00;85.90;;;;;;4961750;28;20134;-76
2022/05/28 03:09:52;;;;;;;8.48;2.47;;;10.10;86.80;;;;;;4994121;28;20174;-76
2022/05/28 03:12:18;;;;;;;11.40;2.70;;;10.10;88.00;;;;;;4975405;28;20045;-77
2022/05/28 03:14:43;;;;;;;8.20;2.15;;;9.90;90.40;;;;;;4992683;28;20326;-76
2022/05/28 03:17:09;;;;;;;9.15;2.42;;;10.00;89.20;;;;;;4959269;28;20401;-76
2022/05/28 03:19:34;;;;;;;9.43;1.98;;;10.00;89.30;;;;;;4976830;28;20062;-76
2022/05/28 03:22:00;;;;;;;9.88;2.13;;;10.00;88.70;;;;;;4961524;28;20030;-76
2022/05/28 03:24:25;;;;;;;10.18;1.63;;;10.10;90.20;;;;;;4983256;28;20034;-76
2022/05/28 03:26:52;;;;;;;9.63;2.50;;;10.10;90.10;;;;;;4958448;28;20031;-76
2022/05/28 03:29:18;;;;;;;15.43;3.28;;;10.10;90.60;;;;;;4950109;28;20022;-76
2022/05/28 03:31:43;;;;;;;7.32;2.35;;;10.20;91.20;;;;;;4976297;28;20027;-76
2022/05/28 03:34:09;;;;;;;8.88;2.20;;;10.10;90.70;;;;;;4976119;28;20025;-76
2022/05/28 03:36:34;;;;;;;13.48;2.42;;;10.10;90.40;;;;;;4977337;28;20027;-76
2022/05/28 03:39:02;;;;;;;6.18;2.10;;;10.10;90.70;;;;;;4995905;28;20382;-76
2022/05/28 03:41:28;;;;;;;10.35;2.15;;;10.00;90.80;;;;;;4978760;28;20034;-75
2022/05/28 03:43:54;;;;;;;11.45;2.60;;;10.00;91.80;;;;;;4942854;28;20166;-78
2022/05/28 03:46:23;;;;;;;12.10;2.10;;;10.00;91.30;;;;;;4941441;28;20803;-75
2022/05/28 03:48:49;;;;;;;10.68;2.25;;;10.10;91.00;;;;;;4992790;28;20521;-75
2022/05/28 03:51:14;;;;;;;6.38;2.03;;;10.00;91.10;;;;;;4991355;28;20034;-76
2022/05/28 03:53:40;;;;;;;11.60;3.25;;;10.10;91.40;;;;;;4992013;28;20022;-75
2022/05/28 03:56:06;;;;;;;9.48;2.08;;;10.10;91.30;;;;;;4980784;28;20401;-76
2022/05/28 03:58:32;;;;;;;9.05;3.45;;;10.10;91.20;;;;;;4957723;28;20110;-77
2022/05/28 04:00:57;;;;;;;10.68;2.08;;;10.10;91.80;;;;;;4929680;28;20113;-75
2022/05/28 04:03:23;;;;;;;8.68;2.15;;;9.90;92.70;;;;;;4974959;28;20386;-75
2022/05/28 04:05:48;;;;;;;7.63;2.42;;;10.10;92.60;;;;;;4978101;28;20027;-75
2022/05/28 04:08:14;;;;;;;6.63;2.03;;;10.10;93.00;;;;;;4950100;28;20030;-75
2022/05/28 04:10:39;;;;;;;21.00;4.18;;;10.00;92.60;;;;;;4985324;28;20045;-75
2022/05/28 04:13:05;;;;;;;12.98;2.97;;;10.10;94.20;;;;;;4981167;28;20214;-76
2022/05/28 04:15:32;;;;;;;13.48;3.05;;;10.00;92.70;;;;;;4990703;28;20493;-75
2022/05/28 04:17:58;;;;;;;4.88;2.05;;;10.10;93.80;;;;;;4978630;28;20505;-75
2022/05/28 04:20:24;;;;;;;7.13;1.85;;;10.20;93.20;;;;;;4992205;28;20081;-76
2022/05/28 04:22:49;;;;;;;7.78;3.05;;;10.30;93.50;;;;;;4958768;28;20398;-75
2022/05/28 04:25:15;;;;;;;15.15;2.90;;;10.30;94.80;;;;;;4949985;28;20042;-75
2022/05/28 04:27:41;;;;;;;12.75;2.58;;;10.40;94.10;;;;;;4966489;28;20122;-76
2022/05/28 04:30:07;;;;;;;16.25;3.28;;;10.60;93.70;;;;;;4932152;28;20038;-76
2022/05/28 04:32:32;;;;;;;14.10;2.85;;;10.70;93.80;;;;;;4975469;28;20039;-76
2022/05/28 04:34:58;;;;;;;11.90;2.97;;;10.80;95.50;;;;;;4976694;28;20486;-75
2022/05/28 04:37:23;;;;;;;15.13;2.83;;;10.90;94.60;;;;;;4947037;28;20049;-75
2022/05/28 04:39:49;;;;;;;12.57;2.67;;;11.10;94.50;;;;;;4997413;28;20041;-76
2022/05/28 04:42:14;;;;;;;10.70;3.90;;;11.20;94.20;;;;;;4978590;28;20034;-76
2022/05/28 04:44:40;;;;;;;12.02;2.85;;;11.40;93.80;;;;;;4995760;28;20051;-75
2022/05/28 04:47:05;;;;;;;15.70;3.55;;;11.40;95.10;;;;;;4960323;28;20105;-76
2022/05/28 04:49:31;;;;;;;14.13;3.35;;;11.50;94.70;;;;;;4978118;28;20096;-75
2022/05/28 04:51:56;;;;;;;16.08;3.17;;;11.70;94.90;;;;;;4986107;28;20042;-75
2022/05/28 04:54:22;;;;;;;12.88;3.45;;;11.80;93.60;;;;;;4962735;28;20036;-76
2022/05/28 04:56:48;;;;;;;13.07;3.88;;;12.10;94.70;;;;;;4978797;28;20027;-75
2022/05/28 04:59:13;;;;;;;16.10;3.17;;;12.30;95.10;;;;;;4997036;28;20030;-75
2022/05/28 05:01:39;;;;;;;13.18;3.85;;;12.50;94.50;;;;;;4945283;28;20042;-75
2022/05/28 05:04:04;;;;;;;9.60;2.88;;;12.70;94.30;;;;;;4997549;28;20035;-75
2022/05/28 05:06:30;;;;;;;19.33;3.90;;;12.80;94.00;;;;;;4975231;28;20030;-75
2022/05/28 05:08:55;;;;;;;12.30;3.15;;;13.00;94.30;;;;;;4978255;28;20114;-76
2022/05/28 05:11:21;;;;;;;20.38;2.72;;;13.20;93.90;;;;;;4977195;28;20126;-76
2022/05/28 05:13:47;;;;;;;10.60;2.55;;;13.40;93.90;;;;;;4962431;28;20117;-76
2022/05/28 05:16:16;;;;;;;14.38;3.00;;;13.50;93.90;;;;;;4985343;28;20397;-76
2022/05/28 05:18:42;;;;;;;14.05;2.20;;;13.60;93.70;;;;;;4986311;28;20054;-76
2022/05/28 05:21:07;;;;;;;9.77;2.53;;;13.60;93.70;;;;;;4948452;28;20153;-76
2022/05/28 05:23:33;;;;;;;14.82;2.55;;;13.70;93.30;;;;;;4995080;28;20027;-76
2022/05/28 05:25:58;;;;;;;9.40;2.35;;;14.00;93.40;;;;;;4994388;28;20109;-75
2022/05/28 05:28:24;;;;;;;12.18;2.63;;;14.30;93.90;;;;;;4963540;28;20031;-76
2022/05/28 05:30:49;;;;;;;12.88;2.38;;;14.30;92.90;;;;;;4993942;28;20039;-76
2022/05/28 05:33:15;;;;;;;8.60;2.42;;;14.50;93.80;;;;;;4962890;28;20501;-76
2022/05/28 05:35:40;;;;;;;11.18;2.38;;;14.70;92.30;;;;;;4978796;28;20035;-76
2022/05/28 05:38:08;;;;;;;9.82;2.33;;;14.70;93.30;;;;;;4959494;28;20240;-76
2022/05/28 05:40:35;;;;;;;10.52;2.10;;;14.80;93.60;;;;;;4978115;28;20153;-76
2022/05/28 05:43:00;;;;;;;9.95;1.77;;;14.90;93.20;;;;;;4976921;28;20531;-75
2022/05/28 05:45:26;;;;;;;10.75;3.05;;;15.10;93.50;;;;;;4976887;28;20034;-76
2022/05/28 05:47:51;;;;;;;10.18;3.05;;;15.30;93.30;;;;;;4946438;28;20109;-76
2022/05/28 05:50:17;;;;;;;10.10;2.22;;;15.10;92.90;;;;;;4963664;28;20042;-76
2022/05/28 05:52:42;;;;;;;5.35;1.83;;;15.20;93.10;;;;;;4979291;28;20038;-76
2022/05/28 05:55:08;;;;;;;10.85;2.53;;;15.30;92.50;;;;;;4979391;28;20039;-76
2022/05/28 05:57:34;;;;;;;8.75;2.33;;;15.10;92.10;;;;;;4983937;28;20042;-76
2022/05/28 05:59:59;;;;;;;9.48;2.20;;;14.90;92.60;;;;;;4970372;28;20043;-76
2022/05/28 06:02:25;;;;;;;8.77;1.95;;;14.90;92.30;;;;;;4985847;28;20031;-76
2022/05/28 06:04:50;;;;;;;7.57;2.00;;;14.90;91.90;;;;;;4960965;28;20027;-76
2022/05/28 06:07:16;;;;;;;8.50;2.33;;;14.90;91.10;;;;;;4961260;28;20106;-76
2022/05/28 06:09:41;;;;;;;7.43;1.77;;;14.70;91.80;;;;;;4963671;28;20030;-76
2022/05/28 06:12:07;;;;;;;7.07;1.60;;;14.70;91.30;;;;;;4945960;28;20255;-76
2022/05/28 06:14:32;;;;;;;7.45;1.98;;;14.40;91.80;;;;;;4960162;28;20026;-76
2022/05/28 06:16:58;;;;;;;13.27;2.40;;;14.20;91.80;;;;;;4932700;28;20109;-76
2022/05/28 06:19:24;;;;;;;19.85;3.28;;;14.10;92.30;;;;;;4977194;28;20026;-76
2022/05/28 06:21:49;;;;;;;11.18;2.15;;;14.30;91.70;;;;;;4976824;28;20109;-76
2022/05/28 06:24:15;;;;;;;15.15;2.28;;;14.60;92.30;;;;;;4927352;28;20033;-76
2022/05/28 06:26:40;;;;;;;9.77;2.20;;;14.80;92.40;;;;;;4978080;28;20354;-76
2022/05/28 06:29:06;;;;;;;10.15;1.90;;;15.10;92.20;;;;;;4981485;28;20109;-76
2022/05/28 06:31:31;;;;;;;7.28;2.47;;;15.30;92.10;;;;;;4995263;28;20025;-76
2022/05/28 06:33:57;;;;;;;9.52;1.52;;;15.60;91.80;;;;;;4978311;28;20106;-76
2022/05/28 06:36:22;;;;;;;8.07;1.30;;;16.00;92.00;;;;;;4941991;28;20027;-76
2022/05/28 06:38:48;;;;;;;8.05;1.90;;;16.50;90.70;;;;;;4949645;28;20030;-76
2022/05/28 06:41:13;;;;;;;7.22;1.35;;;16.60;90.00;;;;;;4959176;28;20489;-76
2022/05/28 06:43:39;;;;;;;14.05;2.10;;;16.60;89.70;;;;;;4993529;28;20324;-76
2022/05/28 06:46:05;;;;;;;8.07;1.70;;;17.00;86.80;;;;;;4945468;28;20026;-76
2022/05/28 06:48:31;;;;;;;8.98;1.52;;;17.00;85.00;;;;;;4962392;28;20041;-76
2022/05/28 06:51:03;;;;;;;5.65;2.05;;;16.80;84.70;;;;;;4977023;28;20038;-76
2022/05/28 06:53:36;;;;;;;3.60;1.10;;;16.90;83.10;;;;;;4994746;28;20035;-76
2022/05/28 06:56:02;;;;;;;4.60;1.00;;;16.90;82.90;;;;;;4968809;28;20030;-76
2022/05/28 06:58:27;;;;;;;4.38;1.08;;;16.80;83.60;;;;;;4957085;28;20491;-76
2022/05/28 07:00:53;;;;;;;6.28;1.13;;;16.70;83.10;;;;;;4979073;28;20101;-77
2022/05/28 07:03:20;;;;;;;8.55;1.48;;;16.70;85.60;;;;;;4961252;28;20034;-76
2022/05/28 07:05:46;;;;;;;6.72;1.08;;;17.10;82.80;;;;;;4977571;28;20041;-77
2022/05/28 07:08:11;;;;;;;7.57;1.00;;;17.20;81.40;;;;;;4961580;28;20121;-77
2022/05/28 07:10:45;;;;;;;3.45;1.08;;;17.60;83.20;;;;;;4979443;28;20038;-77
2022/05/28 07:13:11;;;;;;;6.10;1.25;;;17.80;81.50;;;;;;4949353;28;20500;-77
2022/05/28 07:15:37;;;;;;;7.22;1.25;;;18.00;80.90;;;;;;4963461;28;20031;-77
2022/05/28 07:18:02;;;;;;;5.32;1.30;;;18.20;78.30;;;;;;4977609;28;20038;-77
2022/05/28 07:20:28;;;;;;;6.00;0.90;;;18.10;80.20;;;;;;4973843;28;20556;-76
2022/05/28 07:22:54;;;;;;;7.22;1.45;;;17.70;80.80;;;;;;4983401;28;20398;-76
2022/05/28 07:25:19;;;;;;;6.07;1.35;;;17.90;81.90;;;;;;4981417;28;20085;-76
2022/05/28 07:27:45;;;;;;;6.57;0.70;;;18.20;82.30;;;;;;4923269;28;20521;-76
2022/05/28 07:30:10;;;;;;;5.05;1.02;;;18.40;82.10;;;;;;4943188;28;20027;-77
2022/05/28 07:32:36;;;;;;;5.20;1.00;;;18.60;81.60;;;;;;4967554;28;20029;-76
2022/05/28 07:35:01;;;;;;;5.28;1.10;;;18.80;80.10;;;;;;4962606;28;20065;-77
2022/05/28 07:37:30;;;;;;;5.80;0.70;;;18.80;73.20;;;;;;4942768;28;20085;-76
2022/05/28 07:39:56;;;;;;;6.60;0.88;;;18.50;72.00;;;;;;4944619;28;20038;-76
2022/05/28 07:42:21;;;;;;;4.35;1.10;;;18.10;73.80;;;;;;4935448;28;20034;-77
2022/05/28 07:44:47;;;;;;;7.10;1.13;;;18.00;74.00;;;;;;4932918;28;20510;-77
2022/05/28 07:47:13;;;;;;;9.60;1.00;;;17.80;71.40;;;;;;4931673;28;20034;-77
2022/05/28 07:49:38;;;;;;;5.35;1.10;;;17.70;72.80;;;;;;4960548;28;20117;-77
2022/05/28 07:52:04;;;;;;;5.07;0.80;;;17.80;72.90;;;;;;4956410;28;20046;-77
2022/05/28 07:54:30;;;;;;;7.72;1.30;;;18.10;73.20;;;;;;4977042;28;20030;-77
2022/05/28 07:56:55;;;;;;;5.22;1.05;;;18.30;72.80;;;;;;4993720;28;20038;-76
2022/05/28 07:59:21;;;;;;;6.35;1.25;;;19.00;70.60;;;;;;4959357;28;20046;-76
2022/05/28 08:01:47;;;;;;;2.92;1.00;;;19.10;70.40;;;;;;4992726;28;20501;-77
2022/05/28 08:04:13;;;;;;;4.60;1.02;;;19.20;71.60;;;;;;4942141;28;20053;-77
2022/05/28 08:06:39;;;;;;;11.48;1.30;;;19.20;72.40;;;;;;4982013;28;20486;-77
2022/05/28 08:09:05;;;;;;;4.78;1.50;;;19.20;72.20;;;;;;4943510;28;20041;-77
2022/05/28 08:11:30;;;;;;;4.40;1.00;;;19.30;70.00;;;;;;4982456;28;20038;-77
2022/05/28 08:13:56;;;;;;;3.03;0.88;;;19.30;70.90;;;;;;4963756;28;20041;-79
2022/05/28 08:16:22;;;;;;;4.93;0.93;;;19.20;71.50;;;;;;4978985;28;20046;-79
2022/05/28 08:18:47;;;;;;;4.28;1.13;;;19.30;71.60;;;;;;4997119;28;20218;-77
2022/05/28 08:23:57;;;;;;;4.78;0.98;;;19.40;72.60;;;;;;4982228;28;20046;-79
2022/05/28 08:26:23;;;;;;;4.78;0.82;;;19.70;72.60;;;;;;4983247;28;20038;-79
2022/05/28 08:28:48;;;;;;;4.72;0.82;;;20.00;70.60;;;;;;4928301;28;20050;-78
2022/05/28 08:31:14;;;;;;;3.35;0.90;;;20.10;69.60;;;;;;4980797;28;20132;-79
2022/05/28 08:33:40;;;;;;;4.18;0.85;;;20.20;67.50;;;;;;4979159;28;20811;-79
2022/05/28 08:36:05;;;;;;;3.17;1.00;;;20.40;68.80;;;;;;4951758;28;20038;-79
2022/05/28 08:38:31;;;;;;;7.72;1.73;;;20.60;68.10;;;;;;4973171;28;20042;-79
2022/05/28 08:41:15;;;;;;;3.88;1.10;;;21.30;66.00;;;;;;4930293;28;20073;-79
2022/05/28 08:44:07;;;;;;;9.52;1.30;;;21.60;67.80;;;;;;4979549;28;20375;-79
2022/05/28 08:46:34;;;;;;;3.35;0.90;;;22.20;67.70;;;;;;4979715;28;20034;-80
2022/05/28 08:49:00;;;;;;;5.93;1.20;;;22.30;67.70;;;;;;4948984;28;20139;-79
2022/05/28 08:51:38;;;;;;;4.72;0.80;;;21.90;66.60;;;;;;4980471;28;20055;-80
2022/05/28 08:54:15;;;;;;;5.78;1.00;;;21.90;65.40;;;;;;4985182;28;20035;-80
2022/05/28 08:56:41;;;;;;;6.68;0.60;;;22.10;66.20;;;;;;4975430;28;20078;-80
2022/05/28 08:59:09;;;;;;;6.68;1.27;;;22.20;64.50;;;;;;4935374;28;20038;-80
2022/05/28 09:01:36;;;;;;;4.60;1.35;;;22.40;62.80;;;;;;4980536;28;20049;-80
2022/05/28 09:04:04;;;;;;;7.30;1.17;;;22.80;64.30;;;;;;4946714;28;20120;-80
2022/05/28 09:06:36;;;;;;;4.97;0.70;;;23.10;58.70;;;;;;4981692;28;20084;-79
2022/05/28 09:09:02;;;;;;;5.78;1.02;;;23.50;58.90;;;;;;4948841;28;20030;-80
2022/05/28 09:11:35;;;;;;;6.13;1.25;;;23.60;58.20;;;;;;4995371;28;20485;-80
2022/05/28 09:14:24;;;;;;;6.05;1.10;;;23.60;61.00;;;;;;4971108;28;20030;-80
2022/05/28 09:16:58;;;;;;;5.30;1.33;;;24.20;55.50;;;;;;4997998;28;20319;-80
2022/05/28 09:19:33;;;;;;;6.82;1.10;;;24.30;55.00;;;;;;4956043;28;20265;-80
2022/05/28 09:21:58;;;;;;;4.15;1.10;;;24.20;55.80;;;;;;4941950;28;20552;-81
2022/05/28 09:24:26;;;;;;;7.72;1.70;;;24.70;55.80;;;;;;5005861;28;20038;-81
2022/05/28 09:27:12;;;;;;;3.67;1.20;;;24.70;53.80;;;;;;4980465;28;20038;-81
2022/05/28 09:29:59;;;;;;;7.75;1.13;;;24.60;55.30;;;;;;4973791;28;20026;-81
2022/05/28 09:32:56;;;;;;;2.88;1.27;;;24.20;57.10;;;;;;4987584;28;20116;-81
2022/05/28 09:35:26;;;;;;;6.50;0.75;;;24.00;56.40;;;;;;4968132;28;20022;-81
2022/05/28 09:38:14;;;;;;;4.40;1.40;;;23.80;56.80;;;;;;4970592;28;20447;-81
2022/05/28 09:40:50;;;;;;;5.32;1.00;;;23.70;56.90;;;;;;4934723;28;20089;-81
2022/05/28 09:43:46;;;;;;;6.25;1.10;;;23.70;54.80;;;;;;4973246;28;20034;-81
2022/05/28 09:46:27;;;;;;;5.90;1.60;;;23.60;56.10;;;;;;4978925;28;20034;-81
2022/05/28 09:49:01;;;;;;;5.65;1.15;;;23.60;53.10;;;;;;4983170;28;20046;-81
2022/05/28 09:51:29;;;;;;;3.03;1.15;;;23.70;55.30;;;;;;4987329;28;20516;-81
2022/05/28 09:54:16;;;;;;;3.95;1.10;;;24.00;55.30;;;;;;4991262;28;20043;-81
2022/05/28 09:56:43;;;;;;;4.93;0.95;;;23.80;55.50;;;;;;4982594;28;20505;-81
2022/05/28 09:59:30;;;;;;;3.95;0.93;;;23.90;54.70;;;;;;4952301;28;20061;-82
2022/05/28 10:02:36;;;;;;;8.93;1.73;;;24.30;52.00;;;;;;4955361;28;20137;-82
2022/05/28 10:05:11;;;;;;;5.00;1.20;;;24.00;52.20;;;;;;4938686;28;20030;-82
2022/05/28 10:07:51;;;;;;;8.90;0.98;;;24.20;53.90;;;;;;4981298;28;20113;-82
2022/05/28 10:10:26;;;;;;;5.25;1.15;;;24.10;53.70;;;;;;4935935;28;20027;-82
2022/05/28 10:12:52;;;;;;;5.57;0.93;;;23.90;54.70;;;;;;4971131;28;20026;-82
2022/05/28 10:15:20;;;;;;;5.32;1.13;;;24.00;54.00;;;;;;4962559;28;20026;-82
2022/05/28 10:17:53;;;;;;;3.80;1.02;;;24.20;54.90;;;;;;4987230;28;20031;-82
2022/05/28 10:20:19;;;;;;;3.55;0.77;;;24.10;54.60;;;;;;4962576;28;20106;-82
2022/05/28 10:22:46;;;;;;;4.22;1.15;;;24.30;52.30;;;;;;4989581;28;20045;-82
2022/05/28 10:25:38;;;;;;;5.60;1.15;;;24.50;54.30;;;;;;4934047;28;20030;-82
2022/05/28 10:28:04;;;;;;;6.18;1.20;;;24.60;53.70;;;;;;4950922;28;20161;-83
2022/05/28 10:30:40;;;;;;;5.57;1.02;;;24.50;54.70;;;;;;4982270;28;20086;-83
2022/05/28 10:33:08;;;;;;;3.28;1.08;;;24.90;54.80;;;;;;4947550;28;20030;-84
2022/05/28 10:35:34;;;;;;;8.93;1.23;;;25.50;53.50;;;;;;4958172;28;20042;-84
2022/05/28 10:38:26;;;;;;;3.95;1.00;;;25.60;51.60;;;;;;4981514;28;20034;-84
2022/05/28 10:41:01;;;;;;;4.80;0.98;;;25.70;51.50;;;;;;4957579;28;20034;-83
2022/05/28 10:43:36;;;;;;;6.15;1.75;;;25.70;50.00;;;;;;4934269;28;20145;-84
2022/05/28 10:46:22;;;;;;;10.38;1.92;;;25.40;50.00;;;;;;4995128;28;20034;-84
2022/05/28 10:49:25;;;;;;;8.88;1.70;;;25.00;49.10;;;;;;4961624;28;20502;-84
2022/05/28 10:52:00;;;;;;;7.45;1.58;;;24.60;50.20;;;;;;4969013;28;20048;-83
2022/05/28 10:54:45;;;;;;;7.38;1.45;;;24.30;51.40;;;;;;5013011;27;20389;-84
2022/05/28 10:57:41;;;;;;;6.18;1.40;;;24.00;52.30;;;;;;5009516;28;20497;-84
2022/05/28 11:00:11;;;;;;;4.20;0.80;;;24.00;53.10;;;;;;5021803;28;20030;-83
2022/05/28 11:02:49;;;;;;;3.22;1.42;;;23.80;52.80;;;;;;4996272;28;22098;-84
2022/05/28 11:05:52;;;;;;;3.03;0.80;;;24.20;53.10;;;;;;5001175;28;20029;-84
2022/05/28 11:08:39;;;;;;;7.15;1.20;;;24.60;52.20;;;;;;5029879;28;20105;-84
2022/05/28 11:11:30;;;;;;;5.25;0.95;;;25.00;52.40;;;;;;5012596;28;20034;-85
2022/05/28 11:13:58;;;;;;;3.50;1.02;;;25.40;52.50;;;;;;5018155;28;20033;-85
2022/05/28 11:16:47;;;;;;;4.68;1.27;;;25.70;51.90;;;;;;5016393;28;20115;-85
2022/05/28 11:20:06;;;;;;;3.78;0.90;;;26.10;50.10;;;;;;5009095;28;20041;-85
2022/05/28 11:22:39;;;;;;;2.40;0.88;;;26.00;49.50;;;;;;4988390;28;20493;-85
2022/05/28 11:25:15;;;;;;;4.93;0.90;;;26.00;49.10;;;;;;5013892;28;20102;-84
2022/05/28 11:27:55;;;;;;;5.35;0.90;;;26.10;48.00;;;;;;4993856;28;20033;-84
2022/05/28 11:30:27;;;;;;;7.65;1.52;;;26.40;47.70;;;;;;4979717;28;20123;-85
2022/05/28 11:33:02;;;;;;;2.58;1.10;;;26.50;48.00;;;;;;4997719;28;20060;-85
2022/05/28 11:35:42;;;;;;;1.27;0.80;;;26.90;46.00;;;;;;4998908;28;20469;-84
2022/05/28 11:38:21;;;;;;;4.05;0.95;;;26.70;48.90;;;;;;5014782;28;20473;-84
2022/05/28 11:41:03;;;;;;;3.13;0.95;;;26.80;48.00;;;;;;4998629;28;20084;-85
2022/05/28 11:43:40;;;;;;;6.82;1.30;;;27.10;48.80;;;;;;5002717;28;20119;-84
2022/05/28 11:46:54;;;;;;;5.40;1.15;;;27.40;47.90;;;;;;4997380;28;20504;-84
2022/05/28 11:53:04;;;;;;;4.03;1.30;;;27.00;45.80;;;;;;4984128;28;20052;-84
2022/05/28 11:55:32;;;;;;;6.03;1.23;;;26.80;45.50;;;;;;5015553;28;20048;-84
2022/05/28 11:58:05;;;;;;;3.33;1.13;;;27.00;45.50;;;;;;4999677;28;20489;-84
2022/05/28 12:00:35;;;;;;;4.53;1.25;;;26.90;46.10;;;;;;5029482;28;20042;-84
2022/05/28 12:03:24;;;;;;;5.18;1.10;;;27.00;45.00;;;;;;4999363;28;20040;-83
2022/05/28 12:06:01;;;;;;;5.55;1.30;;;27.20;45.50;;;;;;5011560;28;20131;-84
2022/05/28 12:08:49;;;;;;;3.78;1.17;;;27.10;45.90;;;;;;5018554;28;20493;-84
2022/05/28 12:11:30;;;;;;;5.65;1.35;;;27.30;43.30;;;;;;4999371;28;20081;-84
2022/05/28 12:14:00;;;;;;;6.63;1.13;;;27.40;45.60;;;;;;4999884;28;20377;-84
2022/05/28 12:16:31;;;;;;;6.80;1.05;;;27.40;45.30;;;;;;4993674;28;20057;-84
2022/05/28 12:19:05;;;;;;;9.52;1.63;;;27.40;45.00;;;;;;5011446;28;20535;-84
2022/05/28 12:21:32;;;;;;;4.88;1.65;;;27.50;46.10;;;;;;5001689;28;20037;-84
2022/05/28 12:24:14;;;;;;;4.80;1.63;;;27.30;44.50;;;;;;5003693;28;20072;-83
2022/05/28 12:26:48;;;;;;;5.78;1.38;;;27.00;43.50;;;;;;5001560;28;20041;-84
2022/05/28 12:29:39;;;;;;;4.03;1.30;;;26.80;45.20;;;;;;4991636;28;20030;-84
2022/05/28 12:32:14;;;;;;;6.22;1.40;;;26.80;46.10;;;;;;5023306;28;20137;-82
2022/05/28 12:35:01;;;;;;;5.30;1.00;;;26.60;45.00;;;;;;5016023;28;20045;-83
2022/05/28 12:37:35;;;;;;;2.45;0.98;;;26.50;46.00;;;;;;4992726;28;20053;-83
2022/05/28 12:40:37;;;;;;;5.95;1.50;;;26.70;45.30;;;;;;5016003;28;20577;-83
2022/05/28 12:43:25;;;;;;;4.53;1.50;;;26.90;44.70;;;;;;5014325;28;20031;-83
2022/05/28 12:45:51;;;;;;;3.17;0.90;;;27.00;45.00;;;;;;5003836;28;20026;-82
2022/05/28 12:48:30;;;;;;;1.88;1.00;;;27.40;44.80;;;;;;5007247;28;20034;-82
2022/05/28 12:51:16;;;;;;;4.75;1.13;;;27.50;45.80;;;;;;5005775;28;20448;-82
2022/05/28 12:53:54;;;;;;;4.38;1.20;;;27.80;45.20;;;;;;5001976;28;20037;-81
2022/05/28 12:56:35;;;;;;;5.53;1.17;;;28.30;43.70;;;;;;5017886;28;20116;-80
2022/05/28 12:59:11;;;;;;;4.10;1.38;;;28.10;42.60;;;;;;5017236;28;20049;-80
2022/05/28 13:01:38;;;;;;;5.00;1.15;;;28.00;42.00;;;;;;5003735;28;20116;-80
2022/05/28 13:04:14;;;;;;;3.05;1.00;;;27.80;40.30;;;;;;4987733;28;20038;-80
2022/05/28 13:06:49;;;;;;;3.92;0.90;;;27.20;37.90;;;;;;4984419;28;20489;-80
2022/05/28 13:09:14;;;;;;;3.33;0.80;;;26.90;40.20;;;;;;5005640;28;20029;-80